<?xml version="1.0" encoding="UTF-8" standalone="no" ?>
<gpx xmlns="http://www.topografix.com/GPX/1/1" xmlns:xsi="http://www.w3.org/2001/XMLSchema-instance" xsi:schemaLocation="http://www.topografix.com/GPX/1/1 http://www.topografix.com/GPX/1/1/gpx.xsd" version="1.1" creator="VisuGPX - https://www.visugpx.com">
  <metadata>
    <name>Norvège</name>
  </metadata>
  <trk>
    <name><![CDATA[Tour d'Europe: étape 058]]></name>
    <trkseg>
      <trkpt lat="69.30392" lon="16.06927">
        <ele>43.877157</ele>
        <time>2020-08-25T06:14:33.420Z</time>
      </trkpt>
      <trkpt lat="69.30434" lon="16.07526">
        <ele>44.52514</ele>
        <time>2020-08-25T06:15:17.412Z</time>
      </trkpt>
      <trkpt lat="69.30605" lon="16.07926">
        <ele>43.483095</ele>
        <time>2020-08-25T06:15:57.439Z</time>
      </trkpt>
      <trkpt lat="69.3076" lon="16.08352">
        <ele>43.430867</ele>
        <time>2020-08-25T06:16:37.429Z</time>
      </trkpt>
      <trkpt lat="69.30915" lon="16.08835">
        <ele>43.978726</ele>
        <time>2020-08-25T06:17:17.418Z</time>
      </trkpt>
      <trkpt lat="69.31024" lon="16.09397">
        <ele>45.513249</ele>
        <time>2020-08-25T06:18:02.447Z</time>
      </trkpt>
      <trkpt lat="69.31099" lon="16.1002">
        <ele>45.202423</ele>
        <time>2020-08-25T06:18:42.429Z</time>
      </trkpt>
      <trkpt lat="69.31117" lon="16.10671">
        <ele>45.854402</ele>
        <time>2020-08-25T06:19:24.427Z</time>
      </trkpt>
      <trkpt lat="69.31151" lon="16.11207">
        <ele>47.902846</ele>
        <time>2020-08-25T06:20:05.437Z</time>
      </trkpt>
      <trkpt lat="69.31214" lon="16.1179">
        <ele>46.896303</ele>
        <time>2020-08-25T06:20:45.428Z</time>
      </trkpt>
      <trkpt lat="69.3142" lon="16.11944">
        <ele>47.024109</ele>
        <time>2020-08-25T06:21:31.421Z</time>
      </trkpt>
      <trkpt lat="69.31623" lon="16.12009">
        <ele>47.029226</ele>
        <time>2020-08-25T06:22:12.434Z</time>
      </trkpt>
      <trkpt lat="69.3183" lon="16.12136">
        <ele>47.008181</ele>
        <time>2020-08-25T06:22:52.433Z</time>
      </trkpt>
      <trkpt lat="69.32036" lon="16.12345">
        <ele>48.709271</ele>
        <time>2020-08-25T06:23:32.459Z</time>
      </trkpt>
      <trkpt lat="69.32059" lon="16.12844">
        <ele>45.564384</ele>
        <time>2020-08-25T06:24:14.436Z</time>
      </trkpt>
      <trkpt lat="69.32216" lon="16.13137">
        <ele>38.93719</ele>
        <time>2020-08-25T06:24:54.439Z</time>
      </trkpt>
      <trkpt lat="69.32396" lon="16.1327">
        <ele>38.016615</ele>
        <time>2020-08-25T06:25:34.435Z</time>
      </trkpt>
      <trkpt lat="69.326" lon="16.13159">
        <ele>35.991367</ele>
        <time>2020-08-25T06:26:21.433Z</time>
      </trkpt>
      <trkpt lat="69.32704" lon="16.13612">
        <ele>46.639483</ele>
        <time>2020-08-25T06:46:19.778Z</time>
      </trkpt>
      <trkpt lat="69.32685" lon="16.14159">
        <ele>54.481052</ele>
        <time>2020-08-25T06:48:42.775Z</time>
      </trkpt>
      <trkpt lat="69.32594" lon="16.14764">
        <ele>57.678762</ele>
        <time>2020-08-25T06:49:53.760Z</time>
      </trkpt>
      <trkpt lat="69.32505" lon="16.15319">
        <ele>57.856545</ele>
        <time>2020-08-25T06:50:43.804Z</time>
      </trkpt>
      <trkpt lat="69.32473" lon="16.15906">
        <ele>53.452419</ele>
        <time>2020-08-25T06:51:25.788Z</time>
      </trkpt>
      <trkpt lat="69.32487" lon="16.16505">
        <ele>44.991979</ele>
        <time>2020-08-25T06:52:06.790Z</time>
      </trkpt>
      <trkpt lat="69.32504" lon="16.17103">
        <ele>47.255851</ele>
        <time>2020-08-25T06:52:46.776Z</time>
      </trkpt>
      <trkpt lat="69.32522" lon="16.17701">
        <ele>50.363578</ele>
        <time>2020-08-25T06:53:26.873Z</time>
      </trkpt>
      <trkpt lat="69.32545" lon="16.18304">
        <ele>55.077387</ele>
        <time>2020-08-25T06:54:07.758Z</time>
      </trkpt>
      <trkpt lat="69.32563" lon="16.18906">
        <ele>54.949741</ele>
        <time>2020-08-25T06:54:47.788Z</time>
      </trkpt>
      <trkpt lat="69.32581" lon="16.19514">
        <ele>53.288224</ele>
        <time>2020-08-25T06:55:27.772Z</time>
      </trkpt>
      <trkpt lat="69.32604" lon="16.20092">
        <ele>47.857925</ele>
        <time>2020-08-25T06:56:07.791Z</time>
      </trkpt>
      <trkpt lat="69.32625" lon="16.20686">
        <ele>43.133998</ele>
        <time>2020-08-25T06:56:47.777Z</time>
      </trkpt>
      <trkpt lat="69.32652" lon="16.21303">
        <ele>48.279686</ele>
        <time>2020-08-25T06:57:30.796Z</time>
      </trkpt>
      <trkpt lat="69.32671" lon="16.21892">
        <ele>52.970981</ele>
        <time>2020-08-25T06:58:10.775Z</time>
      </trkpt>
      <trkpt lat="69.32696" lon="16.22493">
        <ele>57.021957</ele>
        <time>2020-08-25T06:58:50.781Z</time>
      </trkpt>
      <trkpt lat="69.32722" lon="16.23094">
        <ele>54.429999</ele>
        <time>2020-08-25T06:59:32.789Z</time>
      </trkpt>
      <trkpt lat="69.32747" lon="16.23687">
        <ele>53.650199</ele>
        <time>2020-08-25T07:00:12.787Z</time>
      </trkpt>
      <trkpt lat="69.32769" lon="16.24264">
        <ele>57.179572</ele>
        <time>2020-08-25T07:00:53.768Z</time>
      </trkpt>
      <trkpt lat="69.32789" lon="16.24884">
        <ele>55.872844</ele>
        <time>2020-08-25T07:01:33.773Z</time>
      </trkpt>
      <trkpt lat="69.32806" lon="16.25458">
        <ele>54.584173</ele>
        <time>2020-08-25T07:02:13.772Z</time>
      </trkpt>
      <trkpt lat="69.32827" lon="16.26046">
        <ele>56.780117</ele>
        <time>2020-08-25T07:02:53.782Z</time>
      </trkpt>
      <trkpt lat="69.32847" lon="16.26648">
        <ele>58.237181</ele>
        <time>2020-08-25T07:03:34.780Z</time>
      </trkpt>
      <trkpt lat="69.32872" lon="16.27236">
        <ele>56.954727</ele>
        <time>2020-08-25T07:04:15.804Z</time>
      </trkpt>
      <trkpt lat="69.32896" lon="16.27829">
        <ele>54.195495</ele>
        <time>2020-08-25T07:04:55.824Z</time>
      </trkpt>
      <trkpt lat="69.32916" lon="16.28412">
        <ele>52.663136</ele>
        <time>2020-08-25T07:05:36.795Z</time>
      </trkpt>
      <trkpt lat="69.3294" lon="16.29009">
        <ele>57.953184</ele>
        <time>2020-08-25T07:06:17.795Z</time>
      </trkpt>
      <trkpt lat="69.32963" lon="16.29591">
        <ele>63.078477</ele>
        <time>2020-08-25T07:06:57.781Z</time>
      </trkpt>
      <trkpt lat="69.32982" lon="16.30164">
        <ele>59.554304</ele>
        <time>2020-08-25T07:07:37.792Z</time>
      </trkpt>
      <trkpt lat="69.33004" lon="16.30769">
        <ele>55.63946</ele>
        <time>2020-08-25T07:08:19.817Z</time>
      </trkpt>
      <trkpt lat="69.33025" lon="16.3134">
        <ele>51.380647</ele>
        <time>2020-08-25T07:08:59.772Z</time>
      </trkpt>
      <trkpt lat="69.3305" lon="16.31908">
        <ele>50.156998</ele>
        <time>2020-08-25T07:09:39.813Z</time>
      </trkpt>
      <trkpt lat="69.33073" lon="16.32483">
        <ele>49.487012</ele>
        <time>2020-08-25T07:10:19.788Z</time>
      </trkpt>
      <trkpt lat="69.33098" lon="16.33063">
        <ele>49.785522</ele>
        <time>2020-08-25T07:10:59.796Z</time>
      </trkpt>
      <trkpt lat="69.33123" lon="16.33626">
        <ele>51.722639</ele>
        <time>2020-08-25T07:11:39.841Z</time>
      </trkpt>
      <trkpt lat="69.33144" lon="16.34206">
        <ele>50.211012</ele>
        <time>2020-08-25T07:12:19.830Z</time>
      </trkpt>
      <trkpt lat="69.33169" lon="16.3477">
        <ele>46.866467</ele>
        <time>2020-08-25T07:12:59.810Z</time>
      </trkpt>
      <trkpt lat="69.33196" lon="16.35373">
        <ele>43.753017</ele>
        <time>2020-08-25T07:13:41.784Z</time>
      </trkpt>
      <trkpt lat="69.3322" lon="16.35952">
        <ele>45.570919</ele>
        <time>2020-08-25T07:14:21.784Z</time>
      </trkpt>
      <trkpt lat="69.3325" lon="16.36512">
        <ele>48.164962</ele>
        <time>2020-08-25T07:15:01.803Z</time>
      </trkpt>
      <trkpt lat="69.33276" lon="16.37091">
        <ele>46.123207</ele>
        <time>2020-08-25T07:15:43.784Z</time>
      </trkpt>
      <trkpt lat="69.33301" lon="16.37667">
        <ele>46.29376</ele>
        <time>2020-08-25T07:16:23.779Z</time>
      </trkpt>
      <trkpt lat="69.33325" lon="16.38232">
        <ele>46.500813</ele>
        <time>2020-08-25T07:17:03.796Z</time>
      </trkpt>
      <trkpt lat="69.33352" lon="16.38834">
        <ele>46.845624</ele>
        <time>2020-08-25T07:17:45.810Z</time>
      </trkpt>
      <trkpt lat="69.33376" lon="16.39391">
        <ele>46.916685</ele>
        <time>2020-08-25T07:18:25.794Z</time>
      </trkpt>
      <trkpt lat="69.33401" lon="16.39956">
        <ele>44.615854</ele>
        <time>2020-08-25T07:19:05.794Z</time>
      </trkpt>
      <trkpt lat="69.33422" lon="16.40539">
        <ele>44.299042</ele>
        <time>2020-08-25T07:19:46.794Z</time>
      </trkpt>
      <trkpt lat="69.33449" lon="16.41107">
        <ele>42.500558</ele>
        <time>2020-08-25T07:20:26.787Z</time>
      </trkpt>
      <trkpt lat="69.33477" lon="16.41673">
        <ele>41.697784</ele>
        <time>2020-08-25T07:21:06.785Z</time>
      </trkpt>
      <trkpt lat="69.33498" lon="16.42258">
        <ele>38.120743</ele>
        <time>2020-08-25T07:21:46.779Z</time>
      </trkpt>
      <trkpt lat="69.33529" lon="16.42837">
        <ele>36.502233</ele>
        <time>2020-08-25T07:22:27.803Z</time>
      </trkpt>
      <trkpt lat="69.33553" lon="16.43417">
        <ele>44.869804</ele>
        <time>2020-08-25T07:23:07.804Z</time>
      </trkpt>
      <trkpt lat="69.3358" lon="16.43984">
        <ele>46.425103</ele>
        <time>2020-08-25T07:23:47.791Z</time>
      </trkpt>
      <trkpt lat="69.33603" lon="16.44571">
        <ele>47.134425</ele>
        <time>2020-08-25T07:24:27.803Z</time>
      </trkpt>
      <trkpt lat="69.33631" lon="16.45142">
        <ele>48.651958</ele>
        <time>2020-08-25T07:25:07.819Z</time>
      </trkpt>
      <trkpt lat="69.33653" lon="16.45723">
        <ele>44.381002</ele>
        <time>2020-08-25T07:25:47.781Z</time>
      </trkpt>
      <trkpt lat="69.33681" lon="16.46312">
        <ele>37.542404</ele>
        <time>2020-08-25T07:26:29.804Z</time>
      </trkpt>
      <trkpt lat="69.33704" lon="16.46879">
        <ele>35.047179</ele>
        <time>2020-08-25T07:27:09.795Z</time>
      </trkpt>
      <trkpt lat="69.33732" lon="16.47436">
        <ele>40.620378</ele>
        <time>2020-08-25T07:27:49.785Z</time>
      </trkpt>
      <trkpt lat="69.33756" lon="16.47993">
        <ele>41.070585</ele>
        <time>2020-08-25T07:28:29.770Z</time>
      </trkpt>
      <trkpt lat="69.33781" lon="16.48553">
        <ele>41.508251</ele>
        <time>2020-08-25T07:29:09.790Z</time>
      </trkpt>
      <trkpt lat="69.33807" lon="16.49112">
        <ele>41.020991</ele>
        <time>2020-08-25T07:29:49.805Z</time>
      </trkpt>
      <trkpt lat="69.33833" lon="16.49675">
        <ele>41.306215</ele>
        <time>2020-08-25T07:30:29.817Z</time>
      </trkpt>
      <trkpt lat="69.33857" lon="16.5023">
        <ele>41.318373</ele>
        <time>2020-08-25T07:31:09.786Z</time>
      </trkpt>
      <trkpt lat="69.33883" lon="16.50793">
        <ele>40.626346</ele>
        <time>2020-08-25T07:31:49.781Z</time>
      </trkpt>
      <trkpt lat="69.33904" lon="16.5135">
        <ele>42.851868</ele>
        <time>2020-08-25T07:32:29.811Z</time>
      </trkpt>
      <trkpt lat="69.33928" lon="16.51906">
        <ele>46.117831</ele>
        <time>2020-08-25T07:33:09.787Z</time>
      </trkpt>
      <trkpt lat="69.33959" lon="16.52472">
        <ele>45.379154</ele>
        <time>2020-08-25T07:33:50.795Z</time>
      </trkpt>
      <trkpt lat="69.33978" lon="16.53062">
        <ele>46.280009</ele>
        <time>2020-08-25T07:34:31.783Z</time>
      </trkpt>
      <trkpt lat="69.34" lon="16.53629">
        <ele>45.538178</ele>
        <time>2020-08-25T07:35:11.808Z</time>
      </trkpt>
      <trkpt lat="69.34023" lon="16.54221">
        <ele>42.95125</ele>
        <time>2020-08-25T07:35:53.780Z</time>
      </trkpt>
      <trkpt lat="69.34041" lon="16.54774">
        <ele>41.729282</ele>
        <time>2020-08-25T07:36:33.775Z</time>
      </trkpt>
      <trkpt lat="69.34064" lon="16.55338">
        <ele>41.666624</ele>
        <time>2020-08-25T07:37:14.794Z</time>
      </trkpt>
      <trkpt lat="69.34087" lon="16.5597">
        <ele>48.448594</ele>
        <time>2020-08-25T07:37:58.797Z</time>
      </trkpt>
      <trkpt lat="69.34108" lon="16.56585">
        <ele>53.916768</ele>
        <time>2020-08-25T07:38:42.780Z</time>
      </trkpt>
      <trkpt lat="69.34124" lon="16.57196">
        <ele>52.837293</ele>
        <time>2020-08-25T07:39:25.768Z</time>
      </trkpt>
      <trkpt lat="69.34226" lon="16.61618">
        <ele>37.185066</ele>
        <time>2020-08-25T07:44:33.256Z</time>
      </trkpt>
      <trkpt lat="69.34241" lon="16.62174">
        <ele>46.654863</ele>
        <time>2020-08-25T07:45:15.592Z</time>
      </trkpt>
      <trkpt lat="69.34257" lon="16.62819">
        <ele>54.304029</ele>
        <time>2020-08-25T07:46:00.604Z</time>
      </trkpt>
      <trkpt lat="69.34273" lon="16.63421">
        <ele>56.637691</ele>
        <time>2020-08-25T07:46:41.578Z</time>
      </trkpt>
      <trkpt lat="69.35034" lon="16.92046">
        <ele>58.099702</ele>
        <time>2020-08-25T08:18:38.488Z</time>
      </trkpt>
      <trkpt lat="69.35119" lon="16.93111">
        <ele>58.239482</ele>
        <time>2020-08-25T08:19:49.483Z</time>
      </trkpt>
      <trkpt lat="69.35161" lon="16.93875">
        <ele>56.983095</ele>
        <time>2020-08-25T08:20:41.512Z</time>
      </trkpt>
      <trkpt lat="69.35213" lon="16.9464">
        <ele>51.509602</ele>
        <time>2020-08-25T08:21:31.498Z</time>
      </trkpt>
      <trkpt lat="69.35244" lon="16.95222">
        <ele>49.35449</ele>
        <time>2020-08-25T08:22:11.475Z</time>
      </trkpt>
      <trkpt lat="69.35273" lon="16.9583">
        <ele>50.108123</ele>
        <time>2020-08-25T08:22:55.505Z</time>
      </trkpt>
      <trkpt lat="69.35321" lon="16.96541">
        <ele>49.756116</ele>
        <time>2020-08-25T08:23:44.503Z</time>
      </trkpt>
      <trkpt lat="69.35356" lon="16.97222">
        <ele>47.163718</ele>
        <time>2020-08-25T08:24:28.487Z</time>
      </trkpt>
      <trkpt lat="69.35685" lon="16.99925">
        <ele>60.805901</ele>
        <time>2020-08-25T08:27:42.696Z</time>
      </trkpt>
      <trkpt lat="69.35804" lon="17.00402">
        <ele>50.741809</ele>
        <time>2020-08-25T08:28:22.754Z</time>
      </trkpt>
      <trkpt lat="69.35927" lon="17.00894">
        <ele>50.059218</ele>
        <time>2020-08-25T08:29:02.715Z</time>
      </trkpt>
      <trkpt lat="69.36053" lon="17.01372">
        <ele>51.931858</ele>
        <time>2020-08-25T08:29:42.703Z</time>
      </trkpt>
      <trkpt lat="69.36193" lon="17.01861">
        <ele>54.549185</ele>
        <time>2020-08-25T08:30:23.733Z</time>
      </trkpt>
      <trkpt lat="69.36342" lon="17.02367">
        <ele>46.984765</ele>
        <time>2020-08-25T08:31:08.729Z</time>
      </trkpt>
      <trkpt lat="69.36522" lon="17.02957">
        <ele>45.261449</ele>
        <time>2020-08-25T08:32:12.702Z</time>
      </trkpt>
      <trkpt lat="69.3661" lon="17.03795">
        <ele>42.894664</ele>
        <time>2020-08-25T08:33:54.204Z</time>
      </trkpt>
      <trkpt lat="69.36537" lon="17.04348">
        <ele>37.432477</ele>
        <time>2020-08-25T08:35:06.182Z</time>
      </trkpt>
      <trkpt lat="69.36459" lon="17.04911">
        <ele>44.894251</ele>
        <time>2020-08-25T08:36:48.208Z</time>
      </trkpt>
      <trkpt lat="69.36297" lon="17.05304">
        <ele>38.059733</ele>
        <time>2020-08-25T08:45:27.191Z</time>
      </trkpt>
      <trkpt lat="69.36235" lon="17.05864">
        <ele>39.06901</ele>
        <time>2020-08-25T08:46:08.192Z</time>
      </trkpt>
      <trkpt lat="69.36186" lon="17.06439">
        <ele>39.864273</ele>
        <time>2020-08-25T08:46:49.165Z</time>
      </trkpt>
      <trkpt lat="69.36107" lon="17.06993">
        <ele>41.928051</ele>
        <time>2020-08-25T08:47:32.160Z</time>
      </trkpt>
      <trkpt lat="69.36063" lon="17.0766">
        <ele>43.478267</ele>
        <time>2020-08-25T08:48:28.191Z</time>
      </trkpt>
      <trkpt lat="69.35945" lon="17.0813">
        <ele>43.823812</ele>
        <time>2020-08-25T08:49:12.186Z</time>
      </trkpt>
      <trkpt lat="69.35827" lon="17.08582">
        <ele>44.954278</ele>
        <time>2020-08-25T08:49:58.188Z</time>
      </trkpt>
      <trkpt lat="69.35741" lon="17.09104">
        <ele>55.401161</ele>
        <time>2020-08-25T08:51:15.185Z</time>
      </trkpt>
      <trkpt lat="69.35679" lon="17.09688">
        <ele>63.160246</ele>
        <time>2020-08-25T08:52:32.166Z</time>
      </trkpt>
      <trkpt lat="69.35666" lon="17.10356">
        <ele>57.254383</ele>
        <time>2020-08-25T08:53:07.194Z</time>
      </trkpt>
      <trkpt lat="69.35627" lon="17.11064">
        <ele>47.376574</ele>
        <time>2020-08-25T08:53:33.215Z</time>
      </trkpt>
      <trkpt lat="69.35584" lon="17.11701">
        <ele>43.538732</ele>
        <time>2020-08-25T08:54:06.196Z</time>
      </trkpt>
      <trkpt lat="69.35576" lon="17.12361">
        <ele>41.783868</ele>
        <time>2020-08-25T08:54:46.183Z</time>
      </trkpt>
      <trkpt lat="69.35801" lon="17.12566">
        <ele>46.972965</ele>
        <time>2020-08-25T08:55:43.173Z</time>
      </trkpt>
      <trkpt lat="69.36821" lon="17.13119">
        <ele>62.525573</ele>
        <time>2020-08-25T09:03:30.249Z</time>
      </trkpt>
      <trkpt lat="69.37094" lon="17.12961">
        <ele>80.332806</ele>
        <time>2020-08-25T09:04:11.188Z</time>
      </trkpt>
      <trkpt lat="69.37307" lon="17.12723">
        <ele>67.208537</ele>
        <time>2020-08-25T09:04:34.233Z</time>
      </trkpt>
      <trkpt lat="69.37526" lon="17.12478">
        <ele>53.427548</ele>
        <time>2020-08-25T09:04:54.187Z</time>
      </trkpt>
      <trkpt lat="69.37716" lon="17.12264">
        <ele>45.380555</ele>
        <time>2020-08-25T09:05:14.232Z</time>
      </trkpt>
      <trkpt lat="69.37961" lon="17.11995">
        <ele>40.770035</ele>
        <time>2020-08-25T09:05:51.204Z</time>
      </trkpt>
      <trkpt lat="69.38174" lon="17.11763">
        <ele>44.19999</ele>
        <time>2020-08-25T09:06:31.184Z</time>
      </trkpt>
      <trkpt lat="69.3837" lon="17.11657">
        <ele>43.571474</ele>
        <time>2020-08-25T09:07:11.176Z</time>
      </trkpt>
      <trkpt lat="69.38566" lon="17.11874">
        <ele>45.064107</ele>
        <time>2020-08-25T09:08:03.188Z</time>
      </trkpt>
      <trkpt lat="69.38755" lon="17.12204">
        <ele>46.489164</ele>
        <time>2020-08-25T09:08:59.191Z</time>
      </trkpt>
      <trkpt lat="69.38922" lon="17.12499">
        <ele>45.973868</ele>
        <time>2020-08-25T09:09:39.191Z</time>
      </trkpt>
      <trkpt lat="69.3911" lon="17.12714">
        <ele>47.479393</ele>
        <time>2020-08-25T09:10:20.230Z</time>
      </trkpt>
      <trkpt lat="69.39335" lon="17.12879">
        <ele>48.488276</ele>
        <time>2020-08-25T09:11:05.226Z</time>
      </trkpt>
      <trkpt lat="69.39556" lon="17.1295">
        <ele>49.277778</ele>
        <time>2020-08-25T09:11:52.191Z</time>
      </trkpt>
      <trkpt lat="69.39799" lon="17.12978">
        <ele>49.294414</ele>
        <time>2020-08-25T09:12:39.204Z</time>
      </trkpt>
      <trkpt lat="69.40039" lon="17.12973">
        <ele>46.37067</ele>
        <time>2020-08-25T09:13:20.210Z</time>
      </trkpt>
      <trkpt lat="69.40257" lon="17.12959">
        <ele>52.076527</ele>
        <time>2020-08-25T09:14:16.209Z</time>
      </trkpt>
      <trkpt lat="69.40449" lon="17.13191">
        <ele>56.112002</ele>
        <time>2020-08-25T09:15:26.203Z</time>
      </trkpt>
      <trkpt lat="69.40618" lon="17.1358">
        <ele>58.474815</ele>
        <time>2020-08-25T09:16:16.215Z</time>
      </trkpt>
      <trkpt lat="69.40761" lon="17.14149">
        <ele>52.81829</ele>
        <time>2020-08-25T09:17:00.198Z</time>
      </trkpt>
      <trkpt lat="69.40942" lon="17.14636">
        <ele>51.010365</ele>
        <time>2020-08-25T09:17:38.232Z</time>
      </trkpt>
      <trkpt lat="69.41094" lon="17.15035">
        <ele>53.722029</ele>
        <time>2020-08-25T09:18:27.206Z</time>
      </trkpt>
      <trkpt lat="69.41259" lon="17.15286">
        <ele>53.071495</ele>
        <time>2020-08-25T09:19:37.198Z</time>
      </trkpt>
      <trkpt lat="69.41276" lon="17.1587">
        <ele>46.8541</ele>
        <time>2020-08-25T09:20:21.180Z</time>
      </trkpt>
      <trkpt lat="69.41327" lon="17.16396">
        <ele>40.70023</ele>
        <time>2020-08-25T09:20:52.247Z</time>
      </trkpt>
      <trkpt lat="69.41479" lon="17.16787">
        <ele>47.874576</ele>
        <time>2020-08-25T09:22:06.249Z</time>
      </trkpt>
      <trkpt lat="69.41471" lon="17.17415">
        <ele>55.090629</ele>
        <time>2020-08-25T09:23:31.209Z</time>
      </trkpt>
      <trkpt lat="69.41344" lon="17.17905">
        <ele>59.636299</ele>
        <time>2020-08-25T09:24:37.194Z</time>
      </trkpt>
      <trkpt lat="69.4112" lon="17.18281">
        <ele>46.418054</ele>
        <time>2020-08-25T09:25:17.190Z</time>
      </trkpt>
      <trkpt lat="69.4102" lon="17.18836">
        <ele>39.033606</ele>
        <time>2020-08-25T09:26:00.201Z</time>
      </trkpt>
      <trkpt lat="69.41102" lon="17.1936">
        <ele>43.647512</ele>
        <time>2020-08-25T09:26:58.188Z</time>
      </trkpt>
      <trkpt lat="69.41079" lon="17.19887">
        <ele>49.981205</ele>
        <time>2020-08-25T09:27:57.194Z</time>
      </trkpt>
      <trkpt lat="69.41177" lon="17.20444">
        <ele>47.345201</ele>
        <time>2020-08-25T09:28:50.229Z</time>
      </trkpt>
      <trkpt lat="69.41367" lon="17.20864">
        <ele>51.852168</ele>
        <time>2020-08-25T09:30:02.208Z</time>
      </trkpt>
      <trkpt lat="69.41466" lon="17.21349">
        <ele>60.735072</ele>
        <time>2020-08-25T09:31:36.198Z</time>
      </trkpt>
      <trkpt lat="69.41475" lon="17.21975">
        <ele>55.722725</ele>
        <time>2020-08-25T09:32:22.234Z</time>
      </trkpt>
      <trkpt lat="69.41339" lon="17.22492">
        <ele>46.468733</ele>
        <time>2020-08-25T09:32:47.210Z</time>
      </trkpt>
      <trkpt lat="69.41282" lon="17.23086">
        <ele>40.220797</ele>
        <time>2020-08-25T09:33:15.200Z</time>
      </trkpt>
      <trkpt lat="69.41331" lon="17.23666">
        <ele>49.482454</ele>
        <time>2020-08-25T09:34:28.205Z</time>
      </trkpt>
      <trkpt lat="69.41229" lon="17.24332">
        <ele>46.08456</ele>
        <time>2020-08-25T09:35:15.228Z</time>
      </trkpt>
      <trkpt lat="69.41185" lon="17.25012">
        <ele>38.429097</ele>
        <time>2020-08-25T09:35:49.220Z</time>
      </trkpt>
      <trkpt lat="69.41276" lon="17.25568">
        <ele>41.272253</ele>
        <time>2020-08-25T09:36:35.186Z</time>
      </trkpt>
      <trkpt lat="69.41219" lon="17.26095">
        <ele>47.211393</ele>
        <time>2020-08-25T09:37:36.221Z</time>
      </trkpt>
      <trkpt lat="69.41038" lon="17.26435">
        <ele>49.516772</ele>
        <time>2020-08-25T09:38:21.188Z</time>
      </trkpt>
      <trkpt lat="69.40863" lon="17.26816">
        <ele>51.128027</ele>
        <time>2020-08-25T09:39:14.205Z</time>
      </trkpt>
      <trkpt lat="69.40653" lon="17.27205">
        <ele>45.510202</ele>
        <time>2020-08-25T09:40:01.227Z</time>
      </trkpt>
      <trkpt lat="69.40468" lon="17.27623">
        <ele>39.805544</ele>
        <time>2020-08-25T09:40:41.185Z</time>
      </trkpt>
      <trkpt lat="69.40257" lon="17.2807">
        <ele>37.041627</ele>
        <time>2020-08-25T09:41:21.224Z</time>
      </trkpt>
      <trkpt lat="69.40199" lon="17.28501">
        <ele>40.067851</ele>
        <time>2020-08-25T09:42:02.216Z</time>
      </trkpt>
      <trkpt lat="69.40386" lon="17.28648">
        <ele>38.812393</ele>
        <time>2020-08-25T09:42:54.241Z</time>
      </trkpt>
      <trkpt lat="69.40326" lon="17.29213">
        <ele>37.57053</ele>
        <time>2020-08-25T09:43:39.204Z</time>
      </trkpt>
      <trkpt lat="69.40259" lon="17.29783">
        <ele>38.81024</ele>
        <time>2020-08-25T09:44:25.201Z</time>
      </trkpt>
      <trkpt lat="69.40178" lon="17.30406">
        <ele>42.746466</ele>
        <time>2020-08-25T09:50:11.209Z</time>
      </trkpt>
      <trkpt lat="69.40134" lon="17.31092">
        <ele>40.964302</ele>
        <time>2020-08-25T09:50:56.195Z</time>
      </trkpt>
      <trkpt lat="69.40019" lon="17.31605">
        <ele>42.402928</ele>
        <time>2020-08-25T09:51:42.209Z</time>
      </trkpt>
      <trkpt lat="69.3987" lon="17.32217">
        <ele>39.760691</ele>
        <time>2020-08-25T09:52:22.193Z</time>
      </trkpt>
      <trkpt lat="69.39744" lon="17.32733">
        <ele>39.990346</ele>
        <time>2020-08-25T09:53:02.208Z</time>
      </trkpt>
      <trkpt lat="69.39638" lon="17.33297">
        <ele>41.670935</ele>
        <time>2020-08-25T09:53:42.205Z</time>
      </trkpt>
      <trkpt lat="69.39569" lon="17.33853">
        <ele>52.280734</ele>
        <time>2020-08-25T09:54:56.215Z</time>
      </trkpt>
      <trkpt lat="69.39504" lon="17.344">
        <ele>63.804333</ele>
        <time>2020-08-25T09:56:45.205Z</time>
      </trkpt>
      <trkpt lat="69.39486" lon="17.34996">
        <ele>57.992253</ele>
        <time>2020-08-25T09:57:33.199Z</time>
      </trkpt>
      <trkpt lat="69.39501" lon="17.35629">
        <ele>61.587907</ele>
        <time>2020-08-25T09:58:33.217Z</time>
      </trkpt>
      <trkpt lat="69.39475" lon="17.36265">
        <ele>58.984671</ele>
        <time>2020-08-25T09:59:09.193Z</time>
      </trkpt>
      <trkpt lat="69.39378" lon="17.36884">
        <ele>41.963799</ele>
        <time>2020-08-25T09:59:48.196Z</time>
      </trkpt>
      <trkpt lat="69.39249" lon="17.37327">
        <ele>38.144502</ele>
        <time>2020-08-25T10:00:29.208Z</time>
      </trkpt>
      <trkpt lat="69.39112" lon="17.37792">
        <ele>39.072706</ele>
        <time>2020-08-25T10:01:15.214Z</time>
      </trkpt>
      <trkpt lat="69.39017" lon="17.38437">
        <ele>40.804807</ele>
        <time>2020-08-25T10:01:57.230Z</time>
      </trkpt>
      <trkpt lat="69.39029" lon="17.39075">
        <ele>42.63377</ele>
        <time>2020-08-25T10:02:37.213Z</time>
      </trkpt>
      <trkpt lat="69.38954" lon="17.39633">
        <ele>44.205587</ele>
        <time>2020-08-25T10:03:17.220Z</time>
      </trkpt>
      <trkpt lat="69.38991" lon="17.39748">
        <ele>50.932042</ele>
        <time>2020-08-25T10:04:28.228Z</time>
      </trkpt>
      <trkpt lat="69.39149" lon="17.39924">
        <ele>68.818297</ele>
        <time>2020-08-25T10:06:43.201Z</time>
      </trkpt>
      <trkpt lat="69.39106" lon="17.40478">
        <ele>83.631031</ele>
        <time>2020-08-25T10:08:31.194Z</time>
      </trkpt>
      <trkpt lat="69.39103" lon="17.41021">
        <ele>98.084306</ele>
        <time>2020-08-25T10:10:32.193Z</time>
      </trkpt>
      <trkpt lat="69.39091" lon="17.41577">
        <ele>108.101023</ele>
        <time>2020-08-25T10:12:42.233Z</time>
      </trkpt>
      <trkpt lat="69.39088" lon="17.42138">
        <ele>115.134253</ele>
        <time>2020-08-25T10:14:06.186Z</time>
      </trkpt>
      <trkpt lat="69.39103" lon="17.42695">
        <ele>132.021984</ele>
        <time>2020-08-25T10:16:04.261Z</time>
      </trkpt>
      <trkpt lat="69.39133" lon="17.43228">
        <ele>151.396776</ele>
        <time>2020-08-25T10:18:21.202Z</time>
      </trkpt>
      <trkpt lat="69.39179" lon="17.4376">
        <ele>168.445334</ele>
        <time>2020-08-25T10:20:46.213Z</time>
      </trkpt>
      <trkpt lat="69.39239" lon="17.44272">
        <ele>185.422593</ele>
        <time>2020-08-25T10:23:07.232Z</time>
      </trkpt>
      <trkpt lat="69.39313" lon="17.44771">
        <ele>207.534244</ele>
        <time>2020-08-25T10:25:40.205Z</time>
      </trkpt>
      <trkpt lat="69.39393" lon="17.45298">
        <ele>229.27976</ele>
        <time>2020-08-25T10:28:21.235Z</time>
      </trkpt>
      <trkpt lat="69.39472" lon="17.45813">
        <ele>246.359242</ele>
        <time>2020-08-25T10:33:54.222Z</time>
      </trkpt>
      <trkpt lat="69.39548" lon="17.46321">
        <ele>260.227178</ele>
        <time>2020-08-25T10:35:59.208Z</time>
      </trkpt>
      <trkpt lat="69.39589" lon="17.46858">
        <ele>275.459057</ele>
        <time>2020-08-25T10:38:07.223Z</time>
      </trkpt>
      <trkpt lat="69.39535" lon="17.4738">
        <ele>296.915236</ele>
        <time>2020-08-25T10:40:34.207Z</time>
      </trkpt>
      <trkpt lat="69.39504" lon="17.47903">
        <ele>311.859872</ele>
        <time>2020-08-25T10:43:03.245Z</time>
      </trkpt>
      <trkpt lat="69.39629" lon="17.48397">
        <ele>319.948233</ele>
        <time>2020-08-25T10:45:43.218Z</time>
      </trkpt>
      <trkpt lat="69.39714" lon="17.48953">
        <ele>321.475712</ele>
        <time>2020-08-25T10:46:34.271Z</time>
      </trkpt>
      <trkpt lat="69.41235" lon="17.5173">
        <ele>235.733428</ele>
        <time>2020-08-25T10:50:22.225Z</time>
      </trkpt>
      <trkpt lat="69.41446" lon="17.5144">
        <ele>203.824115</ele>
        <time>2020-08-25T10:50:49.205Z</time>
      </trkpt>
      <trkpt lat="69.41677" lon="17.51284">
        <ele>189.114899</ele>
        <time>2020-08-25T10:51:29.201Z</time>
      </trkpt>
      <trkpt lat="69.41798" lon="17.50735">
        <ele>166.406979</ele>
        <time>2020-08-25T10:51:58.244Z</time>
      </trkpt>
      <trkpt lat="69.42062" lon="17.50586">
        <ele>139.86173</ele>
        <time>2020-08-25T10:52:30.215Z</time>
      </trkpt>
      <trkpt lat="69.42264" lon="17.50343">
        <ele>125.627175</ele>
        <time>2020-08-25T10:56:02.250Z</time>
      </trkpt>
      <trkpt lat="69.42091" lon="17.50108">
        <ele>119.777761</ele>
        <time>2020-08-25T10:56:46.201Z</time>
      </trkpt>
      <trkpt lat="69.4229" lon="17.50281">
        <ele>106.21632</ele>
        <time>2020-08-25T10:57:18.243Z</time>
      </trkpt>
      <trkpt lat="69.42547" lon="17.50172">
        <ele>80.8786</ele>
        <time>2020-08-25T10:57:39.204Z</time>
      </trkpt>
      <trkpt lat="69.42755" lon="17.498">
        <ele>60.899824</ele>
        <time>2020-08-25T10:58:00.207Z</time>
      </trkpt>
      <trkpt lat="69.42963" lon="17.49438">
        <ele>45.380037</ele>
        <time>2020-08-25T10:58:21.230Z</time>
      </trkpt>
      <trkpt lat="69.43168" lon="17.4918">
        <ele>41.047632</ele>
        <time>2020-08-25T10:58:43.225Z</time>
      </trkpt>
      <trkpt lat="69.43342" lon="17.48627">
        <ele>41.290318</ele>
        <time>2020-08-25T10:59:23.220Z</time>
      </trkpt>
      <trkpt lat="69.43483" lon="17.48075">
        <ele>41.139826</ele>
        <time>2020-08-25T11:00:03.218Z</time>
      </trkpt>
      <trkpt lat="69.43598" lon="17.47515">
        <ele>45.128177</ele>
        <time>2020-08-25T11:00:50.208Z</time>
      </trkpt>
      <trkpt lat="69.43786" lon="17.47246">
        <ele>52.354061</ele>
        <time>2020-08-25T11:01:58.216Z</time>
      </trkpt>
      <trkpt lat="69.43931" lon="17.46812">
        <ele>54.651977</ele>
        <time>2020-08-25T11:02:59.262Z</time>
      </trkpt>
      <trkpt lat="69.44026" lon="17.46297">
        <ele>52.824294</ele>
        <time>2020-08-25T11:03:45.212Z</time>
      </trkpt>
      <trkpt lat="69.44109" lon="17.45756">
        <ele>51.833512</ele>
        <time>2020-08-25T11:04:25.260Z</time>
      </trkpt>
      <trkpt lat="69.4418" lon="17.45171">
        <ele>51.297557</ele>
        <time>2020-08-25T11:05:07.210Z</time>
      </trkpt>
      <trkpt lat="69.44197" lon="17.44475">
        <ele>47.670718</ele>
        <time>2020-08-25T11:05:47.210Z</time>
      </trkpt>
      <trkpt lat="69.44227" lon="17.43782">
        <ele>48.491805</ele>
        <time>2020-08-25T11:06:27.217Z</time>
      </trkpt>
      <trkpt lat="69.44213" lon="17.43119">
        <ele>45.639719</ele>
        <time>2020-08-25T11:07:07.203Z</time>
      </trkpt>
      <trkpt lat="69.44182" lon="17.425">
        <ele>46.578275</ele>
        <time>2020-08-25T11:07:47.214Z</time>
      </trkpt>
      <trkpt lat="69.44117" lon="17.41901">
        <ele>53.922175</ele>
        <time>2020-08-25T11:08:51.224Z</time>
      </trkpt>
      <trkpt lat="69.44023" lon="17.41355">
        <ele>43.788956</ele>
        <time>2020-08-25T11:09:31.225Z</time>
      </trkpt>
      <trkpt lat="69.43908" lon="17.4083">
        <ele>44.593612</ele>
        <time>2020-08-25T11:10:18.222Z</time>
      </trkpt>
      <trkpt lat="69.43797" lon="17.4032">
        <ele>54.74813</ele>
        <time>2020-08-25T11:11:20.223Z</time>
      </trkpt>
      <trkpt lat="69.43679" lon="17.39827">
        <ele>55.811022</ele>
        <time>2020-08-25T11:12:06.204Z</time>
      </trkpt>
      <trkpt lat="69.43541" lon="17.39218">
        <ele>46.945165</ele>
        <time>2020-08-25T11:12:46.212Z</time>
      </trkpt>
      <trkpt lat="69.43519" lon="17.38563">
        <ele>43.173989</ele>
        <time>2020-08-25T11:13:34.230Z</time>
      </trkpt>
      <trkpt lat="69.43537" lon="17.37909">
        <ele>48.657321</ele>
        <time>2020-08-25T11:14:23.225Z</time>
      </trkpt>
      <trkpt lat="69.43606" lon="17.37221">
        <ele>50.145441</ele>
        <time>2020-08-25T11:15:21.215Z</time>
      </trkpt>
      <trkpt lat="69.43672" lon="17.36575">
        <ele>51.007173</ele>
        <time>2020-08-25T11:16:20.224Z</time>
      </trkpt>
      <trkpt lat="69.43786" lon="17.36061">
        <ele>58.547301</ele>
        <time>2020-08-25T11:17:47.201Z</time>
      </trkpt>
      <trkpt lat="69.43916" lon="17.35618">
        <ele>60.087005</ele>
        <time>2020-08-25T11:18:35.245Z</time>
      </trkpt>
      <trkpt lat="69.44058" lon="17.35177">
        <ele>60.576527</ele>
        <time>2020-08-25T11:19:23.222Z</time>
      </trkpt>
      <trkpt lat="69.44142" lon="17.34633">
        <ele>62.63498</ele>
        <time>2020-08-25T11:20:14.220Z</time>
      </trkpt>
      <trkpt lat="69.44168" lon="17.34306">
        <ele>73.772572</ele>
        <time>2020-08-25T11:21:31.222Z</time>
      </trkpt>
      <trkpt lat="69.44173" lon="17.34805">
        <ele>99.181264</ele>
        <time>2020-08-25T11:23:45.229Z</time>
      </trkpt>
      <trkpt lat="69.45352" lon="17.34658">
        <ele>95.736385</ele>
        <time>2020-08-25T11:29:23.222Z</time>
      </trkpt>
      <trkpt lat="69.4559" lon="17.34812">
        <ele>86.573818</ele>
        <time>2020-08-25T11:29:43.242Z</time>
      </trkpt>
      <trkpt lat="69.45811" lon="17.35153">
        <ele>60.454581</ele>
        <time>2020-08-25T11:30:14.216Z</time>
      </trkpt>
      <trkpt lat="69.4601" lon="17.35326">
        <ele>60.099126</ele>
        <time>2020-08-25T11:31:34.240Z</time>
      </trkpt>
      <trkpt lat="69.46231" lon="17.3522">
        <ele>59.437007</ele>
        <time>2020-08-25T11:32:14.229Z</time>
      </trkpt>
      <trkpt lat="69.46414" lon="17.34696">
        <ele>54.551497</ele>
        <time>2020-08-25T11:32:58.225Z</time>
      </trkpt>
      <trkpt lat="69.46645" lon="17.34373">
        <ele>54.552575</ele>
        <time>2020-08-25T11:33:40.225Z</time>
      </trkpt>
      <trkpt lat="69.46841" lon="17.33976">
        <ele>48.363868</ele>
        <time>2020-08-25T11:34:28.237Z</time>
      </trkpt>
      <trkpt lat="69.47024" lon="17.33662">
        <ele>46.770745</ele>
        <time>2020-08-25T11:35:08.229Z</time>
      </trkpt>
      <trkpt lat="69.47214" lon="17.33458">
        <ele>49.689114</ele>
        <time>2020-08-25T11:35:48.239Z</time>
      </trkpt>
      <trkpt lat="69.47413" lon="17.33314">
        <ele>53.857063</ele>
        <time>2020-08-25T11:36:29.214Z</time>
      </trkpt>
      <trkpt lat="69.47616" lon="17.33167">
        <ele>53.997959</ele>
        <time>2020-08-25T11:37:15.235Z</time>
      </trkpt>
      <trkpt lat="69.47845" lon="17.33144">
        <ele>49.964344</ele>
        <time>2020-08-25T11:38:03.223Z</time>
      </trkpt>
      <trkpt lat="69.48071" lon="17.33139">
        <ele>45.530342</ele>
        <time>2020-08-25T11:39:00.245Z</time>
      </trkpt>
      <trkpt lat="69.48296" lon="17.33251">
        <ele>43.084734</ele>
        <time>2020-08-25T11:39:50.213Z</time>
      </trkpt>
      <trkpt lat="69.48501" lon="17.33315">
        <ele>43.271884</ele>
        <time>2020-08-25T11:40:35.231Z</time>
      </trkpt>
      <trkpt lat="69.48712" lon="17.33345">
        <ele>47.436909</ele>
        <time>2020-08-25T11:41:35.227Z</time>
      </trkpt>
      <trkpt lat="69.48903" lon="17.33432">
        <ele>62.752828</ele>
        <time>2020-08-25T11:43:24.208Z</time>
      </trkpt>
      <trkpt lat="69.48908" lon="17.34106">
        <ele>69.778727</ele>
        <time>2020-08-25T11:44:12.254Z</time>
      </trkpt>
      <trkpt lat="69.48775" lon="17.34701">
        <ele>63.109677</ele>
        <time>2020-08-25T11:44:54.241Z</time>
      </trkpt>
      <trkpt lat="69.48635" lon="17.35285">
        <ele>54.427243</ele>
        <time>2020-08-25T11:45:34.226Z</time>
      </trkpt>
      <trkpt lat="69.48542" lon="17.35946">
        <ele>49.377208</ele>
        <time>2020-08-25T11:46:14.225Z</time>
      </trkpt>
      <trkpt lat="69.48425" lon="17.36469">
        <ele>50.247244</ele>
        <time>2020-08-25T11:46:54.243Z</time>
      </trkpt>
      <trkpt lat="69.48255" lon="17.36928">
        <ele>61.299359</ele>
        <time>2020-08-25T11:47:34.216Z</time>
      </trkpt>
      <trkpt lat="69.48123" lon="17.37381">
        <ele>61.601974</ele>
        <time>2020-08-25T11:48:14.238Z</time>
      </trkpt>
      <trkpt lat="69.48001" lon="17.37901">
        <ele>58.390524</ele>
        <time>2020-08-25T11:49:03.244Z</time>
      </trkpt>
      <trkpt lat="69.47912" lon="17.38561">
        <ele>51.978427</ele>
        <time>2020-08-25T11:49:43.216Z</time>
      </trkpt>
      <trkpt lat="69.47848" lon="17.39146">
        <ele>47.991492</ele>
        <time>2020-08-25T11:50:23.216Z</time>
      </trkpt>
      <trkpt lat="69.47952" lon="17.39592">
        <ele>50.445638</ele>
        <time>2020-08-25T11:51:03.222Z</time>
      </trkpt>
      <trkpt lat="69.48071" lon="17.40045">
        <ele>47.421767</ele>
        <time>2020-08-25T11:51:44.211Z</time>
      </trkpt>
      <trkpt lat="69.48122" lon="17.4061">
        <ele>45.754198</ele>
        <time>2020-08-25T11:52:42.207Z</time>
      </trkpt>
      <trkpt lat="69.48048" lon="17.4115">
        <ele>46.145267</ele>
        <time>2020-08-25T11:53:42.205Z</time>
      </trkpt>
      <trkpt lat="69.47968" lon="17.41746">
        <ele>51.606266</ele>
        <time>2020-08-25T11:54:42.225Z</time>
      </trkpt>
      <trkpt lat="69.47875" lon="17.42316">
        <ele>47.828293</ele>
        <time>2020-08-25T11:55:25.214Z</time>
      </trkpt>
      <trkpt lat="69.47689" lon="17.42678">
        <ele>52.633314</ele>
        <time>2020-08-25T11:56:05.239Z</time>
      </trkpt>
      <trkpt lat="69.47511" lon="17.42983">
        <ele>67.860142</ele>
        <time>2020-08-25T11:57:10.225Z</time>
      </trkpt>
      <trkpt lat="69.48422" lon="17.48517">
        <ele>73.319778</ele>
        <time>2020-08-25T12:06:14.222Z</time>
      </trkpt>
      <trkpt lat="69.48518" lon="17.4892">
        <ele>56.074774</ele>
        <time>2020-08-25T12:06:45.229Z</time>
      </trkpt>
      <trkpt lat="69.48694" lon="17.49387">
        <ele>45.082648</ele>
        <time>2020-08-25T12:07:28.227Z</time>
      </trkpt>
      <trkpt lat="69.48894" lon="17.49656">
        <ele>43.622079</ele>
        <time>2020-08-25T12:08:19.247Z</time>
      </trkpt>
      <trkpt lat="69.49095" lon="17.49931">
        <ele>46.142525</ele>
        <time>2020-08-25T12:09:15.237Z</time>
      </trkpt>
      <trkpt lat="69.49335" lon="17.5017">
        <ele>41.072347</ele>
        <time>2020-08-25T12:09:55.232Z</time>
      </trkpt>
      <trkpt lat="69.49571" lon="17.50303">
        <ele>40.598034</ele>
        <time>2020-08-25T12:10:37.286Z</time>
      </trkpt>
      <trkpt lat="69.49744" lon="17.50624">
        <ele>45.429943</ele>
        <time>2020-08-25T12:11:34.232Z</time>
      </trkpt>
      <trkpt lat="69.49889" lon="17.51111">
        <ele>42.882177</ele>
        <time>2020-08-25T12:12:21.243Z</time>
      </trkpt>
      <trkpt lat="69.49928" lon="17.517">
        <ele>42.998682</ele>
        <time>2020-08-25T12:13:06.276Z</time>
      </trkpt>
      <trkpt lat="69.49949" lon="17.52305">
        <ele>52.366358</ele>
        <time>2020-08-25T12:14:34.242Z</time>
      </trkpt>
      <trkpt lat="69.49776" lon="17.52844">
        <ele>54.005547</ele>
        <time>2020-08-25T12:15:19.227Z</time>
      </trkpt>
      <trkpt lat="69.49611" lon="17.53312">
        <ele>49.946404</ele>
        <time>2020-08-25T12:16:00.224Z</time>
      </trkpt>
      <trkpt lat="69.49421" lon="17.53769">
        <ele>46.022993</ele>
        <time>2020-08-25T12:16:40.247Z</time>
      </trkpt>
      <trkpt lat="69.49309" lon="17.54244">
        <ele>47.784517</ele>
        <time>2020-08-25T12:17:24.229Z</time>
      </trkpt>
      <trkpt lat="69.49169" lon="17.54674">
        <ele>60.020584</ele>
        <time>2020-08-25T12:18:47.237Z</time>
      </trkpt>
      <trkpt lat="69.49014" lon="17.5513">
        <ele>59.72922</ele>
        <time>2020-08-25T12:19:47.245Z</time>
      </trkpt>
      <trkpt lat="69.48807" lon="17.55539">
        <ele>53.206754</ele>
        <time>2020-08-25T12:20:27.235Z</time>
      </trkpt>
      <trkpt lat="69.48541" lon="17.55585">
        <ele>51.581717</ele>
        <time>2020-08-25T12:21:07.262Z</time>
      </trkpt>
      <trkpt lat="69.48283" lon="17.55528">
        <ele>50.888475</ele>
        <time>2020-08-25T12:21:55.240Z</time>
      </trkpt>
      <trkpt lat="69.4808" lon="17.55315">
        <ele>52.607753</ele>
        <time>2020-08-25T12:22:49.246Z</time>
      </trkpt>
      <trkpt lat="69.4787" lon="17.55295">
        <ele>55.540865</ele>
        <time>2020-08-25T12:23:46.234Z</time>
      </trkpt>
      <trkpt lat="69.4764" lon="17.55038">
        <ele>45.446131</ele>
        <time>2020-08-25T12:24:18.270Z</time>
      </trkpt>
      <trkpt lat="69.47421" lon="17.55016">
        <ele>40.192954</ele>
        <time>2020-08-25T12:24:52.236Z</time>
      </trkpt>
      <trkpt lat="69.47252" lon="17.55479">
        <ele>39.316231</ele>
        <time>2020-08-25T12:25:42.241Z</time>
      </trkpt>
      <trkpt lat="69.47176" lon="17.56101">
        <ele>39.739087</ele>
        <time>2020-08-25T12:26:26.245Z</time>
      </trkpt>
      <trkpt lat="69.47023" lon="17.5655">
        <ele>41.866653</ele>
        <time>2020-08-25T12:27:06.265Z</time>
      </trkpt>
      <trkpt lat="69.46587" lon="17.57389">
        <ele>42.704319</ele>
        <time>2020-08-25T12:29:01.260Z</time>
      </trkpt>
      <trkpt lat="69.46369" lon="17.57608">
        <ele>43.553839</ele>
        <time>2020-08-25T12:29:41.247Z</time>
      </trkpt>
      <trkpt lat="69.46186" lon="17.57976">
        <ele>40.331515</ele>
        <time>2020-08-25T12:30:21.262Z</time>
      </trkpt>
      <trkpt lat="69.46061" lon="17.58443">
        <ele>41.857095</ele>
        <time>2020-08-25T12:31:12.242Z</time>
      </trkpt>
      <trkpt lat="69.45944" lon="17.58904">
        <ele>52.309207</ele>
        <time>2020-08-25T12:32:47.243Z</time>
      </trkpt>
      <trkpt lat="69.45897" lon="17.59458">
        <ele>56.528463</ele>
        <time>2020-08-25T12:34:26.257Z</time>
      </trkpt>
      <trkpt lat="69.45764" lon="17.59882">
        <ele>55.520182</ele>
        <time>2020-08-25T12:42:04.256Z</time>
      </trkpt>
      <trkpt lat="69.4618" lon="17.60771">
        <ele>57.540952</ele>
        <time>2020-08-25T12:43:23.271Z</time>
      </trkpt>
      <trkpt lat="69.46209" lon="17.61491">
        <ele>41.490985</ele>
        <time>2020-08-25T12:44:03.258Z</time>
      </trkpt>
      <trkpt lat="69.46185" lon="17.62072">
        <ele>41.657352</ele>
        <time>2020-08-25T12:44:43.236Z</time>
      </trkpt>
      <trkpt lat="69.46205" lon="17.6269">
        <ele>39.471864</ele>
        <time>2020-08-25T12:45:28.244Z</time>
      </trkpt>
      <trkpt lat="69.46684" lon="17.65331">
        <ele>40.801101</ele>
        <time>2020-08-25T12:50:48.232Z</time>
      </trkpt>
      <trkpt lat="69.46723" lon="17.65954">
        <ele>43.389252</ele>
        <time>2020-08-25T12:51:40.254Z</time>
      </trkpt>
      <trkpt lat="69.46663" lon="17.66552">
        <ele>54.208008</ele>
        <time>2020-08-25T12:52:31.232Z</time>
      </trkpt>
      <trkpt lat="69.46595" lon="17.67096">
        <ele>56.757699</ele>
        <time>2020-08-25T12:53:17.257Z</time>
      </trkpt>
      <trkpt lat="69.46603" lon="17.67637">
        <ele>64.250106</ele>
        <time>2020-08-25T12:54:37.246Z</time>
      </trkpt>
      <trkpt lat="69.46592" lon="17.68194">
        <ele>76.676614</ele>
        <time>2020-08-25T12:56:36.256Z</time>
      </trkpt>
      <trkpt lat="69.46586" lon="17.68745">
        <ele>90.69645</ele>
        <time>2020-08-25T12:58:29.290Z</time>
      </trkpt>
      <trkpt lat="69.46636" lon="17.69281">
        <ele>106.847461</ele>
        <time>2020-08-25T13:00:40.254Z</time>
      </trkpt>
      <trkpt lat="69.46791" lon="17.696">
        <ele>117.649476</ele>
        <time>2020-08-25T13:02:51.285Z</time>
      </trkpt>
      <trkpt lat="69.46986" lon="17.6954">
        <ele>130.274673</ele>
        <time>2020-08-25T13:04:45.260Z</time>
      </trkpt>
      <trkpt lat="69.47176" lon="17.69496">
        <ele>147.543761</ele>
        <time>2020-08-25T13:06:52.244Z</time>
      </trkpt>
      <trkpt lat="69.47286" lon="17.69717">
        <ele>150.518763</ele>
        <time>2020-08-25T13:08:22.268Z</time>
      </trkpt>
      <trkpt lat="69.47384" lon="17.70367">
        <ele>132.818048</ele>
        <time>2020-08-25T13:08:45.235Z</time>
      </trkpt>
      <trkpt lat="69.47429" lon="17.71111">
        <ele>122.407416</ele>
        <time>2020-08-25T13:09:11.244Z</time>
      </trkpt>
      <trkpt lat="69.4741" lon="17.71742">
        <ele>125.781798</ele>
        <time>2020-08-25T13:10:13.246Z</time>
      </trkpt>
      <trkpt lat="69.47434" lon="17.72426">
        <ele>123.951636</ele>
        <time>2020-08-25T13:10:59.246Z</time>
      </trkpt>
      <trkpt lat="69.47507" lon="17.73003">
        <ele>120.11715</ele>
        <time>2020-08-25T13:11:56.238Z</time>
      </trkpt>
      <trkpt lat="69.47574" lon="17.73547">
        <ele>121.802231</ele>
        <time>2020-08-25T13:12:58.283Z</time>
      </trkpt>
      <trkpt lat="69.47589" lon="17.74158">
        <ele>126.26113</ele>
        <time>2020-08-25T13:13:46.244Z</time>
      </trkpt>
      <trkpt lat="69.47527" lon="17.74812">
        <ele>131.526768</ele>
        <time>2020-08-25T13:14:46.245Z</time>
      </trkpt>
      <trkpt lat="69.47388" lon="17.75486">
        <ele>121.007049</ele>
        <time>2020-08-25T13:15:27.256Z</time>
      </trkpt>
      <trkpt lat="69.47196" lon="17.75936">
        <ele>117.097531</ele>
        <time>2020-08-25T13:16:10.255Z</time>
      </trkpt>
      <trkpt lat="69.47026" lon="17.76549">
        <ele>116.565643</ele>
        <time>2020-08-25T13:16:50.234Z</time>
      </trkpt>
      <trkpt lat="69.46826" lon="17.76756">
        <ele>108.501057</ele>
        <time>2020-08-25T13:17:34.246Z</time>
      </trkpt>
      <trkpt lat="69.46702" lon="17.77178">
        <ele>109.959905</ele>
        <time>2020-08-25T13:18:24.279Z</time>
      </trkpt>
      <trkpt lat="69.46717" lon="17.77865">
        <ele>105.655529</ele>
        <time>2020-08-25T13:18:45.266Z</time>
      </trkpt>
      <trkpt lat="69.46622" lon="17.78582">
        <ele>91.474885</ele>
        <time>2020-08-25T13:19:05.265Z</time>
      </trkpt>
      <trkpt lat="69.46533" lon="17.79337">
        <ele>71.852121</ele>
        <time>2020-08-25T13:19:26.242Z</time>
      </trkpt>
      <trkpt lat="69.46431" lon="17.80115">
        <ele>52.705203</ele>
        <time>2020-08-25T13:19:46.251Z</time>
      </trkpt>
      <trkpt lat="69.46403" lon="17.80855">
        <ele>38.883599</ele>
        <time>2020-08-25T13:20:06.259Z</time>
      </trkpt>
      <trkpt lat="69.46324" lon="17.81601">
        <ele>31.287449</ele>
        <time>2020-08-25T13:20:38.242Z</time>
      </trkpt>
      <trkpt lat="69.46233" lon="17.81943">
        <ele>28.869183</ele>
        <time>2020-08-25T13:21:38.234Z</time>
      </trkpt>
      <trkpt lat="69.46188" lon="17.82553">
        <ele>38.514166</ele>
        <time>2020-08-25T13:22:29.250Z</time>
      </trkpt>
      <trkpt lat="69.46115" lon="17.83083">
        <ele>54.522282</ele>
        <time>2020-08-25T13:24:11.259Z</time>
      </trkpt>
      <trkpt lat="69.4616" lon="17.83676">
        <ele>58.055923</ele>
        <time>2020-08-25T13:25:54.266Z</time>
      </trkpt>
      <trkpt lat="69.46293" lon="17.8418">
        <ele>46.482626</ele>
        <time>2020-08-25T13:26:14.268Z</time>
      </trkpt>
      <trkpt lat="69.4644" lon="17.84734">
        <ele>35.27946</ele>
        <time>2020-08-25T13:26:39.252Z</time>
      </trkpt>
      <trkpt lat="69.46599" lon="17.8523">
        <ele>34.442369</ele>
        <time>2020-08-25T13:27:20.264Z</time>
      </trkpt>
      <trkpt lat="69.46798" lon="17.85491">
        <ele>35.45583</ele>
        <time>2020-08-25T13:28:15.252Z</time>
      </trkpt>
      <trkpt lat="69.4701" lon="17.85589">
        <ele>36.781759</ele>
        <time>2020-08-25T13:29:22.266Z</time>
      </trkpt>
      <trkpt lat="69.47243" lon="17.85477">
        <ele>31.475177</ele>
        <time>2020-08-25T13:30:13.267Z</time>
      </trkpt>
      <trkpt lat="69.47452" lon="17.85292">
        <ele>20.129252</ele>
        <time>2020-08-25T13:31:01.249Z</time>
      </trkpt>
      <trkpt lat="69.47661" lon="17.85037">
        <ele>8.96377</ele>
        <time>2020-08-25T13:31:41.291Z</time>
      </trkpt>
      <trkpt lat="69.47852" lon="17.84822">
        <ele>9.55462</ele>
        <time>2020-08-25T13:32:22.245Z</time>
      </trkpt>
      <trkpt lat="69.48079" lon="17.84634">
        <ele>20.399119</ele>
        <time>2020-08-25T13:33:21.260Z</time>
      </trkpt>
      <trkpt lat="69.48288" lon="17.84523">
        <ele>23.408828</ele>
        <time>2020-08-25T13:34:05.282Z</time>
      </trkpt>
      <trkpt lat="69.4852" lon="17.84423">
        <ele>24.636841</ele>
        <time>2020-08-25T13:34:46.266Z</time>
      </trkpt>
      <trkpt lat="69.48708" lon="17.84761">
        <ele>33.667865</ele>
        <time>2020-08-25T13:35:30.248Z</time>
      </trkpt>
      <trkpt lat="69.48917" lon="17.8495">
        <ele>34.993975</ele>
        <time>2020-08-25T13:36:18.268Z</time>
      </trkpt>
      <trkpt lat="69.49118" lon="17.85141">
        <ele>34.758276</ele>
        <time>2020-08-25T13:37:03.287Z</time>
      </trkpt>
      <trkpt lat="69.49319" lon="17.85402">
        <ele>35.880754</ele>
        <time>2020-08-25T13:37:53.265Z</time>
      </trkpt>
      <trkpt lat="69.49521" lon="17.85676">
        <ele>36.203698</ele>
        <time>2020-08-25T13:38:37.264Z</time>
      </trkpt>
      <trkpt lat="69.49704" lon="17.85985">
        <ele>38.106046</ele>
        <time>2020-08-25T13:39:36.266Z</time>
      </trkpt>
      <trkpt lat="69.49833" lon="17.86481">
        <ele>37.703785</ele>
        <time>2020-08-25T13:40:17.266Z</time>
      </trkpt>
      <trkpt lat="69.49991" lon="17.86894">
        <ele>37.879242</ele>
        <time>2020-08-25T13:41:03.258Z</time>
      </trkpt>
      <trkpt lat="69.50071" lon="17.87468">
        <ele>41.025306</ele>
        <time>2020-08-25T13:41:51.295Z</time>
      </trkpt>
      <trkpt lat="69.50121" lon="17.88061">
        <ele>43.03403</ele>
        <time>2020-08-25T13:42:43.258Z</time>
      </trkpt>
      <trkpt lat="69.50158" lon="17.88694">
        <ele>42.799348</ele>
        <time>2020-08-25T13:43:26.249Z</time>
      </trkpt>
      <trkpt lat="69.50292" lon="17.89279">
        <ele>38.037831</ele>
        <time>2020-08-25T13:44:06.254Z</time>
      </trkpt>
      <trkpt lat="69.50426" lon="17.89829">
        <ele>38.757292</ele>
        <time>2020-08-25T13:44:52.309Z</time>
      </trkpt>
      <trkpt lat="69.50585" lon="17.90224">
        <ele>42.380376</ele>
        <time>2020-08-25T13:45:59.277Z</time>
      </trkpt>
      <trkpt lat="69.50731" lon="17.90508">
        <ele>38.167562</ele>
        <time>2020-08-25T13:46:56.269Z</time>
      </trkpt>
      <trkpt lat="69.54664" lon="17.95128">
        <ele>49.682211</ele>
        <time>2020-08-25T14:17:17.289Z</time>
      </trkpt>
      <trkpt lat="69.54902" lon="17.95309">
        <ele>46.853892</ele>
        <time>2020-08-25T14:18:14.264Z</time>
      </trkpt>
      <trkpt lat="69.55097" lon="17.95465">
        <ele>48.294046</ele>
        <time>2020-08-25T14:18:59.256Z</time>
      </trkpt>
      <trkpt lat="69.5533" lon="17.95655">
        <ele>48.079781</ele>
        <time>2020-08-25T14:19:54.288Z</time>
      </trkpt>
      <trkpt lat="69.55542" lon="17.9582">
        <ele>47.750631</ele>
        <time>2020-08-25T14:20:43.310Z</time>
      </trkpt>
      <trkpt lat="69.55756" lon="17.95997">
        <ele>42.820988</ele>
        <time>2020-08-25T14:21:32.267Z</time>
      </trkpt>
      <trkpt lat="69.55965" lon="17.96155">
        <ele>39.397633</ele>
        <time>2020-08-25T14:22:20.267Z</time>
      </trkpt>
      <trkpt lat="69.56165" lon="17.96313">
        <ele>45.319202</ele>
        <time>2020-08-25T14:23:06.279Z</time>
      </trkpt>
      <trkpt lat="69.56368" lon="17.9648">
        <ele>46.480929</ele>
        <time>2020-08-25T14:23:56.266Z</time>
      </trkpt>
      <trkpt lat="69.56575" lon="17.96657">
        <ele>38.418325</ele>
        <time>2020-08-25T14:24:45.267Z</time>
      </trkpt>
      <trkpt lat="69.56794" lon="17.96831">
        <ele>19.895545</ele>
        <time>2020-08-25T14:25:37.284Z</time>
      </trkpt>
      <trkpt lat="69.57001" lon="17.97006">
        <ele>16.279433</ele>
        <time>2020-08-25T14:26:24.293Z</time>
      </trkpt>
      <trkpt lat="69.57208" lon="17.971">
        <ele>29.412608</ele>
        <time>2020-08-25T14:27:09.281Z</time>
      </trkpt>
      <trkpt lat="69.5742" lon="17.97279">
        <ele>41.975146</ele>
        <time>2020-08-25T14:27:59.264Z</time>
      </trkpt>
      <trkpt lat="69.57635" lon="17.97393">
        <ele>37.661426</ele>
        <time>2020-08-25T14:28:48.262Z</time>
      </trkpt>
      <trkpt lat="69.57846" lon="17.97524">
        <ele>35.399786</ele>
        <time>2020-08-25T14:29:35.254Z</time>
      </trkpt>
      <trkpt lat="69.5807" lon="17.97658">
        <ele>42.129204</ele>
        <time>2020-08-25T14:30:26.289Z</time>
      </trkpt>
      <trkpt lat="69.58297" lon="17.97778">
        <ele>45.853132</ele>
        <time>2020-08-25T14:31:18.247Z</time>
      </trkpt>
      <trkpt lat="69.58494" lon="17.97882">
        <ele>44.499935</ele>
        <time>2020-08-25T14:32:02.266Z</time>
      </trkpt>
      <trkpt lat="69.58733" lon="17.98015">
        <ele>46.783509</ele>
        <time>2020-08-25T14:32:56.268Z</time>
      </trkpt>
      <trkpt lat="69.58945" lon="17.98143">
        <ele>50.041951</ele>
        <time>2020-08-25T14:33:44.314Z</time>
      </trkpt>
      <trkpt lat="69.59141" lon="17.9825">
        <ele>44.414017</ele>
        <time>2020-08-25T14:34:28.335Z</time>
      </trkpt>
      <trkpt lat="69.59347" lon="17.98348">
        <ele>44.741954</ele>
        <time>2020-08-25T14:35:14.260Z</time>
      </trkpt>
      <trkpt lat="69.59557" lon="17.98514">
        <ele>50.818667</ele>
        <time>2020-08-25T14:36:03.271Z</time>
      </trkpt>
      <trkpt lat="69.59762" lon="17.98738">
        <ele>45.401807</ele>
        <time>2020-08-25T14:36:52.261Z</time>
      </trkpt>
      <trkpt lat="69.59954" lon="17.98992">
        <ele>42.35913</ele>
        <time>2020-08-25T14:37:40.287Z</time>
      </trkpt>
      <trkpt lat="69.60124" lon="17.99352">
        <ele>46.466998</ele>
        <time>2020-08-25T14:38:27.296Z</time>
      </trkpt>
      <trkpt lat="69.60297" lon="17.99731">
        <ele>55.828543</ele>
        <time>2020-08-25T14:39:15.290Z</time>
      </trkpt>
      <trkpt lat="69.60469" lon="18.00133">
        <ele>64.509651</ele>
        <time>2020-08-25T14:40:05.278Z</time>
      </trkpt>
      <trkpt lat="69.60629" lon="18.00577">
        <ele>53.242213</ele>
        <time>2020-08-25T14:40:55.270Z</time>
      </trkpt>
      <trkpt lat="69.60776" lon="18.01069">
        <ele>58.728884</ele>
        <time>2020-08-25T14:41:45.270Z</time>
      </trkpt>
      <trkpt lat="69.60898" lon="18.01589">
        <ele>69.116674</ele>
        <time>2020-08-25T14:42:34.264Z</time>
      </trkpt>
      <trkpt lat="69.60983" lon="18.02215">
        <ele>52.948408</ele>
        <time>2020-08-25T14:43:26.275Z</time>
      </trkpt>
      <trkpt lat="69.61038" lon="18.02845">
        <ele>33.610962</ele>
        <time>2020-08-25T14:44:17.268Z</time>
      </trkpt>
      <trkpt lat="69.60978" lon="18.03399">
        <ele>39.228567</ele>
        <time>2020-08-25T14:45:23.261Z</time>
      </trkpt>
      <trkpt lat="69.60766" lon="18.0304">
        <ele>45.418833</ele>
        <time>2020-08-25T14:50:20.286Z</time>
      </trkpt>
      <trkpt lat="69.60535" lon="18.03074">
        <ele>36.924071</ele>
        <time>2020-08-25T14:51:20.269Z</time>
      </trkpt>
      <trkpt lat="69.6039" lon="18.03285">
        <ele>35.293613</ele>
        <time>2020-08-25T14:52:06.277Z</time>
      </trkpt>
      <trkpt lat="69.60354" lon="18.03946">
        <ele>32.540051</ele>
        <time>2020-08-25T14:53:03.327Z</time>
      </trkpt>
      <trkpt lat="69.60253" lon="18.04499">
        <ele>37.606334</ele>
        <time>2020-08-25T14:53:56.274Z</time>
      </trkpt>
      <trkpt lat="69.60166" lon="18.04908">
        <ele>42.690905</ele>
        <time>2020-08-25T14:54:51.284Z</time>
      </trkpt>
      <trkpt lat="69.60333" lon="18.05331">
        <ele>44.524107</ele>
        <time>2020-08-25T14:55:38.273Z</time>
      </trkpt>
      <trkpt lat="69.60493" lon="18.05756">
        <ele>45.47082</ele>
        <time>2020-08-25T14:56:28.283Z</time>
      </trkpt>
      <trkpt lat="69.60656" lon="18.06123">
        <ele>51.747073</ele>
        <time>2020-08-25T14:57:28.271Z</time>
      </trkpt>
      <trkpt lat="69.60743" lon="18.06618">
        <ele>54.564059</ele>
        <time>2020-08-25T14:58:50.249Z</time>
      </trkpt>
      <trkpt lat="69.60854" lon="18.07118">
        <ele>55.217415</ele>
        <time>2020-08-25T15:00:15.281Z</time>
      </trkpt>
      <trkpt lat="69.61059" lon="18.07496">
        <ele>54.947026</ele>
        <time>2020-08-25T15:00:57.276Z</time>
      </trkpt>
      <trkpt lat="69.61292" lon="18.07597">
        <ele>47.492972</ele>
        <time>2020-08-25T15:01:37.276Z</time>
      </trkpt>
      <trkpt lat="69.6151" lon="18.07823">
        <ele>48.470234</ele>
        <time>2020-08-25T15:02:24.273Z</time>
      </trkpt>
      <trkpt lat="69.61709" lon="18.07981">
        <ele>51.800133</ele>
        <time>2020-08-25T15:03:29.278Z</time>
      </trkpt>
      <trkpt lat="69.61971" lon="18.07927">
        <ele>42.21916</ele>
        <time>2020-08-25T15:04:09.290Z</time>
      </trkpt>
      <trkpt lat="69.62139" lon="18.0741">
        <ele>36.432406</ele>
        <time>2020-08-25T15:04:49.266Z</time>
      </trkpt>
      <trkpt lat="69.6204" lon="18.06739">
        <ele>36.128187</ele>
        <time>2020-08-25T15:05:24.295Z</time>
      </trkpt>
      <trkpt lat="69.62096" lon="18.06162">
        <ele>46.138997</ele>
        <time>2020-08-25T15:06:16.266Z</time>
      </trkpt>
      <trkpt lat="69.62141" lon="18.05466">
        <ele>36.718919</ele>
        <time>2020-08-25T15:06:59.314Z</time>
      </trkpt>
      <trkpt lat="69.6219" lon="18.04871">
        <ele>41.900273</ele>
        <time>2020-08-25T15:08:07.284Z</time>
      </trkpt>
      <trkpt lat="69.6234" lon="18.04515">
        <ele>48.876284</ele>
        <time>2020-08-25T15:09:54.294Z</time>
      </trkpt>
      <trkpt lat="69.62552" lon="18.04116">
        <ele>43.157421</ele>
        <time>2020-08-25T15:10:42.321Z</time>
      </trkpt>
      <trkpt lat="69.62615" lon="18.03536">
        <ele>44.902163</ele>
        <time>2020-08-25T15:11:40.302Z</time>
      </trkpt>
      <trkpt lat="69.62815" lon="18.03183">
        <ele>43.656486</ele>
        <time>2020-08-25T15:12:31.288Z</time>
      </trkpt>
      <trkpt lat="69.63041" lon="18.02911">
        <ele>29.199858</ele>
        <time>2020-08-25T15:12:58.286Z</time>
      </trkpt>
      <trkpt lat="69.63206" lon="18.02579">
        <ele>31.503364</ele>
        <time>2020-08-25T15:13:38.301Z</time>
      </trkpt>
      <trkpt lat="69.63316" lon="18.0204">
        <ele>35.811732</ele>
        <time>2020-08-25T15:14:18.279Z</time>
      </trkpt>
      <trkpt lat="69.63404" lon="18.01485">
        <ele>37.60361</ele>
        <time>2020-08-25T15:15:18.276Z</time>
      </trkpt>
      <trkpt lat="69.63583" lon="18.01105">
        <ele>38.16173</ele>
        <time>2020-08-25T15:16:06.295Z</time>
      </trkpt>
      <trkpt lat="69.63608" lon="18.00543">
        <ele>36.086544</ele>
        <time>2020-08-25T15:16:55.310Z</time>
      </trkpt>
    </trkseg>
  </trk>
</gpx>